sensor_id;sensor_type;location;lat;lon;timestamp;temperature;humidity
39657;DHT22;25337;51.478;7.510;2023-11-19T00:01:23;10.00;99.90
39657;DHT22;25337;51.478;7.510;2023-11-19T00:03:48;10.00;99.90
39657;DHT22;25337;51.478;7.510;2023-11-19T00:06:14;10.10;99.90
39657;DHT22;25337;51.478;7.510;2023-11-19T00:08:42;10.10;99.90
39657;DHT22;25337;51.478;7.510;2023-11-19T00:11:09;10.10;99.90
39657;DHT22;25337;51.478;7.510;2023-11-19T00:13:34;10.10;99.90
39657;DHT22;25337;51.478;7.510;2023-11-19T00:16:02;10.20;99.90
39657;DHT22;25337;51.478;7.510;2023-11-19T00:18:29;10.20;99.90
39657;DHT22;25337;51.478;7.510;2023-11-19T00:20:58;10.30;99.90
39657;DHT22;25337;51.478;7.510;2023-11-19T00:23:23;10.20;99.90
39657;DHT22;25337;51.478;7.510;2023-11-19T00:25:49;10.40;99.90
39657;DHT22;25337;51.478;7.510;2023-11-19T00:28:15;10.40;99.90
39657;DHT22;25337;51.478;7.510;2023-11-19T00:30:40;10.40;99.90
39657;DHT22;25337;51.478;7.510;2023-11-19T00:33:06;10.50;99.90
39657;DHT22;25337;51.478;7.510;2023-11-19T00:35:32;10.50;99.90
39657;DHT22;25337;51.478;7.510;2023-11-19T00:37:58;10.60;99.90
39657;DHT22;25337;51.478;7.510;2023-11-19T00:40:23;10.60;99.90
39657;DHT22;25337;51.478;7.510;2023-11-19T00:42:49;10.50;99.90
39657;DHT22;25337;51.478;7.510;2023-11-19T00:45:15;10.60;99.90
39657;DHT22;25337;51.478;7.510;2023-11-19T00:47:43;10.60;99.90
39657;DHT22;25337;51.478;7.510;2023-11-19T00:50:09;10.60;99.90
39657;DHT22;25337;51.478;7.510;2023-11-19T00:52:35;10.60;99.90
39657;DHT22;25337;51.478;7.510;2023-11-19T00:55:02;10.70;99.90
39657;DHT22;25337;51.478;7.510;2023-11-19T00:57:27;10.60;99.90
39657;DHT22;25337;51.478;7.510;2023-11-19T00:59:53;10.70;99.90
39657;DHT22;25337;51.478;7.510;2023-11-19T01:02:19;10.70;99.90
39657;DHT22;25337;51.478;7.510;2023-11-19T01:04:44;10.80;99.90
39657;DHT22;25337;51.478;7.510;2023-11-19T01:07:12;10.80;99.90
39657;DHT22;25337;51.478;7.510;2023-11-19T01:09:38;10.80;99.90
39657;DHT22;25337;51.478;7.510;2023-11-19T01:12:03;10.80;99.90
39657;DHT22;25337;51.478;7.510;2023-11-19T01:14:30;10.80;99.90
39657;DHT22;25337;51.478;7.510;2023-11-19T01:16:56;10.80;99.90
39657;DHT22;25337;51.478;7.510;2023-11-19T01:19:22;10.90;99.90
39657;DHT22;25337;51.478;7.510;2023-11-19T01:21:48;10.80;99.90
39657;DHT22;25337;51.478;7.510;2023-11-19T01:24:14;11.00;99.90
39657;DHT22;25337;51.478;7.510;2023-11-19T01:26:40;11.00;99.90
39657;DHT22;25337;51.478;7.510;2023-11-19T01:29:11;11.10;99.90
39657;DHT22;25337;51.478;7.510;2023-11-19T01:31:42;11.10;99.90
39657;DHT22;25337;51.478;7.510;2023-11-19T01:34:08;11.20;99.90
39657;DHT22;25337;51.478;7.510;2023-11-19T01:36:34;11.30;99.90
39657;DHT22;25337;51.478;7.510;2023-11-19T01:39:00;11.30;99.90
39657;DHT22;25337;51.478;7.510;2023-11-19T01:41:26;11.30;99.90
39657;DHT22;25337;51.478;7.510;2023-11-19T01:43:54;11.40;99.90
39657;DHT22;25337;51.478;7.510;2023-11-19T01:46:20;11.40;99.90
39657;DHT22;25337;51.478;7.510;2023-11-19T01:48:46;11.30;99.90
39657;DHT22;25337;51.478;7.510;2023-11-19T01:51:16;11.30;99.90
39657;DHT22;25337;51.478;7.510;2023-11-19T01:53:43;11.30;99.90
39657;DHT22;25337;51.478;7.510;2023-11-19T01:56:09;11.30;99.90
39657;DHT22;25337;51.478;7.510;2023-11-19T01:58:37;11.30;99.90
39657;DHT22;25337;51.478;7.510;2023-11-19T02:01:07;11.40;99.90
39657;DHT22;25337;51.478;7.510;2023-11-19T02:03:33;11.30;99.90
39657;DHT22;25337;51.478;7.510;2023-11-19T02:06:02;11.40;99.90
39657;DHT22;25337;51.478;7.510;2023-11-19T02:08:29;11.40;99.90
39657;DHT22;25337;51.478;7.510;2023-11-19T02:10:57;11.30;99.90
39657;DHT22;25337;51.478;7.510;2023-11-19T02:13:24;11.40;99.90
39657;DHT22;25337;51.478;7.510;2023-11-19T02:15:50;11.30;99.90
39657;DHT22;25337;51.478;7.510;2023-11-19T02:18:26;11.40;99.90
39657;DHT22;25337;51.478;7.510;2023-11-19T02:20:54;11.40;99.90
39657;DHT22;25337;51.478;7.510;2023-11-19T02:23:21;11.40;99.90
39657;DHT22;25337;51.478;7.510;2023-11-19T02:25:57;11.40;99.90
39657;DHT22;25337;51.478;7.510;2023-11-19T02:28:25;11.50;99.90
39657;DHT22;25337;51.478;7.510;2023-11-19T02:30:51;11.50;99.90
39657;DHT22;25337;51.478;7.510;2023-11-19T02:33:17;11.50;99.90
39657;DHT22;25337;51.478;7.510;2023-11-19T02:35:42;11.60;99.90
39657;DHT22;25337;51.478;7.510;2023-11-19T02:38:08;11.60;99.90
39657;DHT22;25337;51.478;7.510;2023-11-19T02:40:34;11.70;99.90
39657;DHT22;25337;51.478;7.510;2023-11-19T02:42:59;11.70;99.90
39657;DHT22;25337;51.478;7.510;2023-11-19T02:45:26;11.70;99.90
39657;DHT22;25337;51.478;7.510;2023-11-19T02:47:52;11.70;99.90
39657;DHT22;25337;51.478;7.510;2023-11-19T02:50:21;11.70;99.90
39657;DHT22;25337;51.478;7.510;2023-11-19T02:52:54;11.70;99.90
39657;DHT22;25337;51.478;7.510;2023-11-19T02:55:21;11.60;99.90
39657;DHT22;25337;51.478;7.510;2023-11-19T02:57:49;11.60;99.90
39657;DHT22;25337;51.478;7.510;2023-11-19T03:00:16;11.70;99.90
39657;DHT22;25337;51.478;7.510;2023-11-19T03:02:43;11.60;99.90
39657;DHT22;25337;51.478;7.510;2023-11-19T03:05:15;11.70;99.90
39657;DHT22;25337;51.478;7.510;2023-11-19T03:07:42;11.70;99.90
39657;DHT22;25337;51.478;7.510;2023-11-19T03:10:09;11.70;99.90
39657;DHT22;25337;51.478;7.510;2023-11-19T03:12:43;11.70;99.90
39657;DHT22;25337;51.478;7.510;2023-11-19T03:15:09;11.70;99.90
39657;DHT22;25337;51.478;7.510;2023-11-19T03:17:38;11.70;99.90
39657;DHT22;25337;51.478;7.510;2023-11-19T03:20:09;11.70;99.90
39657;DHT22;25337;51.478;7.510;2023-11-19T03:22:39;11.80;99.90
39657;DHT22;25337;51.478;7.510;2023-11-19T03:25:04;11.80;99.90
39657;DHT22;25337;51.478;7.510;2023-11-19T03:27:34;11.90;99.90
39657;DHT22;25337;51.478;7.510;2023-11-19T03:30:01;11.90;99.90
39657;DHT22;25337;51.478;7.510;2023-11-19T03:32:27;11.90;99.90
39657;DHT22;25337;51.478;7.510;2023-11-19T03:34:52;12.00;99.90
39657;DHT22;25337;51.478;7.510;2023-11-19T03:37:18;12.00;99.90
39657;DHT22;25337;51.478;7.510;2023-11-19T03:39:47;12.00;99.90
39657;DHT22;25337;51.478;7.510;2023-11-19T03:42:13;12.00;99.90
39657;DHT22;25337;51.478;7.510;2023-11-19T03:44:38;12.00;99.90
39657;DHT22;25337;51.478;7.510;2023-11-19T03:47:04;12.00;99.90
39657;DHT22;25337;51.478;7.510;2023-11-19T03:49:30;12.00;99.90
39657;DHT22;25337;51.478;7.510;2023-11-19T03:51:55;12.00;99.90
39657;DHT22;25337;51.478;7.510;2023-11-19T03:54:21;12.00;99.90
39657;DHT22;25337;51.478;7.510;2023-11-19T03:56:48;11.90;99.90
39657;DHT22;25337;51.478;7.510;2023-11-19T03:59:14;12.00;99.90
39657;DHT22;25337;51.478;7.510;2023-11-19T04:01:41;11.90;99.90
39657;DHT22;25337;51.478;7.510;2023-11-19T04:04:06;11.90;99.90
39657;DHT22;25337;51.478;7.510;2023-11-19T04:06:32;11.90;99.90
39657;DHT22;25337;51.478;7.510;2023-11-19T04:08:58;11.80;99.90
39657;DHT22;25337;51.478;7.510;2023-11-19T04:11:23;11.80;99.90
39657;DHT22;25337;51.478;7.510;2023-11-19T04:13:49;11.90;99.90
39657;DHT22;25337;51.478;7.510;2023-11-19T04:16:14;11.90;99.90
39657;DHT22;25337;51.478;7.510;2023-11-19T04:18:40;11.80;99.90
39657;DHT22;25337;51.478;7.510;2023-11-19T04:21:07;11.80;99.90
39657;DHT22;25337;51.478;7.510;2023-11-19T04:23:32;11.70;99.90
39657;DHT22;25337;51.478;7.510;2023-11-19T04:26:02;11.70;99.90
39657;DHT22;25337;51.478;7.510;2023-11-19T04:28:27;11.60;99.90
39657;DHT22;25337;51.478;7.510;2023-11-19T04:30:53;11.50;99.90
39657;DHT22;25337;51.478;7.510;2023-11-19T04:33:21;11.50;99.90
39657;DHT22;25337;51.478;7.510;2023-11-19T04:35:47;11.50;99.90
39657;DHT22;25337;51.478;7.510;2023-11-19T04:38:12;11.30;99.90
39657;DHT22;25337;51.478;7.510;2023-11-19T04:40:38;11.40;99.90
39657;DHT22;25337;51.478;7.510;2023-11-19T04:43:03;11.40;99.90
39657;DHT22;25337;51.478;7.510;2023-11-19T04:45:29;11.40;99.90
39657;DHT22;25337;51.478;7.510;2023-11-19T04:47:55;11.60;99.90
39657;DHT22;25337;51.478;7.510;2023-11-19T04:50:20;11.50;99.90
39657;DHT22;25337;51.478;7.510;2023-11-19T04:52:53;11.50;99.90
39657;DHT22;25337;51.478;7.510;2023-11-19T04:55:19;11.50;99.90
39657;DHT22;25337;51.478;7.510;2023-11-19T04:57:45;11.50;99.90
39657;DHT22;25337;51.478;7.510;2023-11-19T05:00:11;11.50;99.90
39657;DHT22;25337;51.478;7.510;2023-11-19T05:02:36;11.50;99.90
39657;DHT22;25337;51.478;7.510;2023-11-19T05:05:03;11.50;99.90
39657;DHT22;25337;51.478;7.510;2023-11-19T05:07:30;11.40;99.90
39657;DHT22;25337;51.478;7.510;2023-11-19T05:09:55;11.40;99.90
39657;DHT22;25337;51.478;7.510;2023-11-19T05:12:23;11.40;99.90
39657;DHT22;25337;51.478;7.510;2023-11-19T05:14:49;11.40;99.90
39657;DHT22;25337;51.478;7.510;2023-11-19T05:17:18;11.40;99.90
39657;DHT22;25337;51.478;7.510;2023-11-19T05:19:45;11.30;99.90
39657;DHT22;25337;51.478;7.510;2023-11-19T05:22:10;11.30;99.90
39657;DHT22;25337;51.478;7.510;2023-11-19T05:24:36;11.30;99.90
39657;DHT22;25337;51.478;7.510;2023-11-19T05:27:02;11.40;99.90
39657;DHT22;25337;51.478;7.510;2023-11-19T05:29:28;11.40;99.90
39657;DHT22;25337;51.478;7.510;2023-11-19T05:31:54;11.50;99.90
39657;DHT22;25337;51.478;7.510;2023-11-19T05:34:20;11.40;99.90
39657;DHT22;25337;51.478;7.510;2023-11-19T05:36:46;11.40;99.90
39657;DHT22;25337;51.478;7.510;2023-11-19T05:39:12;11.40;99.90
39657;DHT22;25337;51.478;7.510;2023-11-19T05:41:37;11.50;99.90
39657;DHT22;25337;51.478;7.510;2023-11-19T05:44:03;11.50;99.90
39657;DHT22;25337;51.478;7.510;2023-11-19T05:46:29;11.40;99.90
39657;DHT22;25337;51.478;7.510;2023-11-19T05:48:54;11.40;99.90
39657;DHT22;25337;51.478;7.510;2023-11-19T05:51:20;11.40;99.90
39657;DHT22;25337;51.478;7.510;2023-11-19T05:53:45;11.40;99.90
39657;DHT22;25337;51.478;7.510;2023-11-19T05:56:11;11.40;99.90
39657;DHT22;25337;51.478;7.510;2023-11-19T05:58:37;11.50;99.90
39657;DHT22;25337;51.478;7.510;2023-11-19T06:01:05;11.50;99.90
39657;DHT22;25337;51.478;7.510;2023-11-19T06:03:32;11.60;99.90
39657;DHT22;25337;51.478;7.510;2023-11-19T06:05:58;11.60;99.90
39657;DHT22;25337;51.478;7.510;2023-11-19T06:08:24;11.60;99.90
39657;DHT22;25337;51.478;7.510;2023-11-19T06:10:52;11.60;99.90
39657;DHT22;25337;51.478;7.510;2023-11-19T06:13:18;11.60;99.90
39657;DHT22;25337;51.478;7.510;2023-11-19T06:15:44;11.60;99.90
39657;DHT22;25337;51.478;7.510;2023-11-19T06:18:12;11.70;99.90
39657;DHT22;25337;51.478;7.510;2023-11-19T06:20:38;11.70;99.90
39657;DHT22;25337;51.478;7.510;2023-11-19T06:23:06;11.70;99.90
39657;DHT22;25337;51.478;7.510;2023-11-19T06:25:32;11.70;99.90
39657;DHT22;25337;51.478;7.510;2023-11-19T06:27:58;11.60;99.90
39657;DHT22;25337;51.478;7.510;2023-11-19T06:30:24;11.50;99.90
39657;DHT22;25337;51.478;7.510;2023-11-19T06:32:52;11.40;99.90
39657;DHT22;25337;51.478;7.510;2023-11-19T06:35:17;11.40;99.90
39657;DHT22;25337;51.478;7.510;2023-11-19T06:37:43;11.50;99.90
39657;DHT22;25337;51.478;7.510;2023-11-19T06:40:09;11.40;99.90
39657;DHT22;25337;51.478;7.510;2023-11-19T06:42:35;11.40;99.90
39657;DHT22;25337;51.478;7.510;2023-11-19T06:45:01;11.40;99.90
39657;DHT22;25337;51.478;7.510;2023-11-19T06:47:27;11.30;99.90
39657;DHT22;25337;51.478;7.510;2023-11-19T06:49:54;11.30;99.90
39657;DHT22;25337;51.478;7.510;2023-11-19T06:52:20;11.30;99.90
39657;DHT22;25337;51.478;7.510;2023-11-19T06:54:45;11.30;99.90
39657;DHT22;25337;51.478;7.510;2023-11-19T06:57:11;11.40;99.90
39657;DHT22;25337;51.478;7.510;2023-11-19T06:59:37;11.50;99.90
39657;DHT22;25337;51.478;7.510;2023-11-19T07:02:03;11.40;99.90
39657;DHT22;25337;51.478;7.510;2023-11-19T07:04:30;11.40;99.90
39657;DHT22;25337;51.478;7.510;2023-11-19T07:06:55;11.40;99.90
39657;DHT22;25337;51.478;7.510;2023-11-19T07:09:21;11.40;99.90
39657;DHT22;25337;51.478;7.510;2023-11-19T07:11:48;11.40;99.90
39657;DHT22;25337;51.478;7.510;2023-11-19T07:14:16;11.40;99.90
39657;DHT22;25337;51.478;7.510;2023-11-19T07:16:42;11.40;99.90
39657;DHT22;25337;51.478;7.510;2023-11-19T07:19:08;11.40;99.90
39657;DHT22;25337;51.478;7.510;2023-11-19T07:21:34;11.40;99.90
39657;DHT22;25337;51.478;7.510;2023-11-19T07:24:00;11.40;99.90
39657;DHT22;25337;51.478;7.510;2023-11-19T07:26:26;11.40;99.90
39657;DHT22;25337;51.478;7.510;2023-11-19T07:28:52;11.40;99.90
39657;DHT22;25337;51.478;7.510;2023-11-19T07:31:18;11.40;99.90
39657;DHT22;25337;51.478;7.510;2023-11-19T07:33:45;11.40;99.90
39657;DHT22;25337;51.478;7.510;2023-11-19T07:36:11;11.40;99.90
39657;DHT22;25337;51.478;7.510;2023-11-19T07:38:37;11.30;99.90
39657;DHT22;25337;51.478;7.510;2023-11-19T07:41:04;11.30;99.90
39657;DHT22;25337;51.478;7.510;2023-11-19T07:43:31;11.20;99.90
39657;DHT22;25337;51.478;7.510;2023-11-19T07:45:56;11.30;99.90
39657;DHT22;25337;51.478;7.510;2023-11-19T07:48:25;11.20;99.90
39657;DHT22;25337;51.478;7.510;2023-11-19T07:50:52;11.20;99.90
39657;DHT22;25337;51.478;7.510;2023-11-19T07:53:18;11.20;99.90
39657;DHT22;25337;51.478;7.510;2023-11-19T07:55:44;11.20;99.90
39657;DHT22;25337;51.478;7.510;2023-11-19T07:58:13;11.20;99.90
39657;DHT22;25337;51.478;7.510;2023-11-19T08:00:41;11.10;99.90
39657;DHT22;25337;51.478;7.510;2023-11-19T08:03:07;11.20;99.90
39657;DHT22;25337;51.478;7.510;2023-11-19T08:05:36;11.20;99.90
39657;DHT22;25337;51.478;7.510;2023-11-19T08:08:01;11.20;99.90
39657;DHT22;25337;51.478;7.510;2023-11-19T08:10:30;11.20;99.90
39657;DHT22;25337;51.478;7.510;2023-11-19T08:12:55;11.20;99.90
39657;DHT22;25337;51.478;7.510;2023-11-19T08:15:21;11.20;99.90
39657;DHT22;25337;51.478;7.510;2023-11-19T08:17:46;11.10;99.90
39657;DHT22;25337;51.478;7.510;2023-11-19T08:20:14;11.30;99.90
39657;DHT22;25337;51.478;7.510;2023-11-19T08:22:40;11.20;99.90
39657;DHT22;25337;51.478;7.510;2023-11-19T08:25:06;11.20;99.90
39657;DHT22;25337;51.478;7.510;2023-11-19T08:27:32;11.40;99.90
39657;DHT22;25337;51.478;7.510;2023-11-19T08:29:57;11.40;99.90
39657;DHT22;25337;51.478;7.510;2023-11-19T08:32:27;11.50;99.90
39657;DHT22;25337;51.478;7.510;2023-11-19T08:34:53;11.60;99.90
39657;DHT22;25337;51.478;7.510;2023-11-19T08:37:19;11.70;99.90
39657;DHT22;25337;51.478;7.510;2023-11-19T08:39:50;11.70;99.90
39657;DHT22;25337;51.478;7.510;2023-11-19T08:42:16;11.60;99.90
39657;DHT22;25337;51.478;7.510;2023-11-19T08:44:44;11.60;99.90
39657;DHT22;25337;51.478;7.510;2023-11-19T08:47:16;11.70;99.90
39657;DHT22;25337;51.478;7.510;2023-11-19T08:49:43;11.70;99.90
39657;DHT22;25337;51.478;7.510;2023-11-19T08:52:11;11.80;99.90
39657;DHT22;25337;51.478;7.510;2023-11-19T08:54:37;11.80;99.90
39657;DHT22;25337;51.478;7.510;2023-11-19T08:57:03;11.90;99.90
39657;DHT22;25337;51.478;7.510;2023-11-19T08:59:30;12.00;99.90
39657;DHT22;25337;51.478;7.510;2023-11-19T09:01:55;12.00;99.90
39657;DHT22;25337;51.478;7.510;2023-11-19T09:04:21;12.10;99.90
39657;DHT22;25337;51.478;7.510;2023-11-19T09:06:48;12.20;99.90
39657;DHT22;25337;51.478;7.510;2023-11-19T09:09:14;12.30;99.90
39657;DHT22;25337;51.478;7.510;2023-11-19T09:11:40;12.50;99.90
39657;DHT22;25337;51.478;7.510;2023-11-19T09:14:06;12.40;99.90
39657;DHT22;25337;51.478;7.510;2023-11-19T09:16:31;12.40;99.90
39657;DHT22;25337;51.478;7.510;2023-11-19T09:18:57;12.40;99.90
39657;DHT22;25337;51.478;7.510;2023-11-19T09:21:27;12.40;99.90
39657;DHT22;25337;51.478;7.510;2023-11-19T09:23:55;12.40;99.90
39657;DHT22;25337;51.478;7.510;2023-11-19T09:26:20;12.30;99.90
39657;DHT22;25337;51.478;7.510;2023-11-19T09:28:46;12.20;99.90
39657;DHT22;25337;51.478;7.510;2023-11-19T09:31:18;12.10;99.90
39657;DHT22;25337;51.478;7.510;2023-11-19T09:33:44;12.00;99.90
39657;DHT22;25337;51.478;7.510;2023-11-19T09:36:12;12.00;99.90
39657;DHT22;25337;51.478;7.510;2023-11-19T09:38:40;12.00;99.90
39657;DHT22;25337;51.478;7.510;2023-11-19T09:41:05;12.10;99.90
39657;DHT22;25337;51.478;7.510;2023-11-19T09:43:35;12.10;99.90
39657;DHT22;25337;51.478;7.510;2023-11-19T09:46:06;12.20;99.90
39657;DHT22;25337;51.478;7.510;2023-11-19T09:48:33;12.30;99.90
39657;DHT22;25337;51.478;7.510;2023-11-19T09:51:01;12.30;99.90
39657;DHT22;25337;51.478;7.510;2023-11-19T09:53:27;12.20;99.90
39657;DHT22;25337;51.478;7.510;2023-11-19T09:55:53;12.20;99.90
39657;DHT22;25337;51.478;7.510;2023-11-19T09:58:19;12.20;99.90
39657;DHT22;25337;51.478;7.510;2023-11-19T10:00:44;12.30;99.90
39657;DHT22;25337;51.478;7.510;2023-11-19T10:03:11;12.40;99.90
39657;DHT22;25337;51.478;7.510;2023-11-19T10:05:40;12.40;99.90
39657;DHT22;25337;51.478;7.510;2023-11-19T10:08:08;12.50;99.90
39657;DHT22;25337;51.478;7.510;2023-11-19T10:10:36;12.60;99.90
39657;DHT22;25337;51.478;7.510;2023-11-19T10:13:02;12.70;99.90
39657;DHT22;25337;51.478;7.510;2023-11-19T10:15:36;12.70;99.90
39657;DHT22;25337;51.478;7.510;2023-11-19T10:18:03;12.90;99.90
39657;DHT22;25337;51.478;7.510;2023-11-19T10:20:35;13.20;99.90
39657;DHT22;25337;51.478;7.510;2023-11-19T10:23:02;13.80;99.90
39657;DHT22;25337;51.478;7.510;2023-11-19T10:25:28;14.10;99.90
39657;DHT22;25337;51.478;7.510;2023-11-19T10:27:55;14.50;99.90
39657;DHT22;25337;51.478;7.510;2023-11-19T10:33:08;14.90;99.90
39657;DHT22;25337;51.478;7.510;2023-11-19T10:35:36;14.30;99.90
39657;DHT22;25337;51.478;7.510;2023-11-19T10:38:13;13.80;99.90
39657;DHT22;25337;51.478;7.510;2023-11-19T10:40:40;13.40;99.90
39657;DHT22;25337;51.478;7.510;2023-11-19T10:43:07;13.40;99.90
39657;DHT22;25337;51.478;7.510;2023-11-19T10:45:36;13.20;99.90
39657;DHT22;25337;51.478;7.510;2023-11-19T10:48:03;13.10;99.90
39657;DHT22;25337;51.478;7.510;2023-11-19T10:50:39;13.00;99.90
39657;DHT22;25337;51.478;7.510;2023-11-19T10:53:08;12.90;99.90
39657;DHT22;25337;51.478;7.510;2023-11-19T10:55:35;12.80;99.90
39657;DHT22;25337;51.478;7.510;2023-11-19T10:58:03;12.60;99.90
39657;DHT22;25337;51.478;7.510;2023-11-19T11:03:19;12.50;99.90
39657;DHT22;25337;51.478;7.510;2023-11-19T11:05:47;12.50;99.90
39657;DHT22;25337;51.478;7.510;2023-11-19T11:08:13;12.50;99.90
39657;DHT22;25337;51.478;7.510;2023-11-19T11:10:53;12.50;99.90
39657;DHT22;25337;51.478;7.510;2023-11-19T11:13:19;12.50;99.90
39657;DHT22;25337;51.478;7.510;2023-11-19T11:15:48;12.50;99.90
39657;DHT22;25337;51.478;7.510;2023-11-19T11:18:14;12.60;99.90
39657;DHT22;25337;51.478;7.510;2023-11-19T11:20:40;12.50;99.90
39657;DHT22;25337;51.478;7.510;2023-11-19T11:28:56;12.50;99.90
39657;DHT22;25337;51.478;7.510;2023-11-19T11:39:22;12.20;99.90
39657;DHT22;25337;51.478;7.510;2023-11-19T11:41:47;12.20;99.90
39657;DHT22;25337;51.478;7.510;2023-11-19T11:45:09;12.30;99.90
39657;DHT22;25337;51.478;7.510;2023-11-19T11:50:23;12.50;99.90
39657;DHT22;25337;51.478;7.510;2023-11-19T11:55:51;12.60;99.90
39657;DHT22;25337;51.478;7.510;2023-11-19T11:58:18;12.60;99.90
39657;DHT22;25337;51.478;7.510;2023-11-19T12:00:43;12.80;99.90
39657;DHT22;25337;51.478;7.510;2023-11-19T12:03:11;13.20;99.90
39657;DHT22;25337;51.478;7.510;2023-11-19T12:05:44;13.90;99.90
39657;DHT22;25337;51.478;7.510;2023-11-19T12:08:12;14.50;99.90
39657;DHT22;25337;51.478;7.510;2023-11-19T12:10:48;15.00;99.90
39657;DHT22;25337;51.478;7.510;2023-11-19T12:13:15;15.10;99.90
39657;DHT22;25337;51.478;7.510;2023-11-19T12:18:23;14.90;99.90
39657;DHT22;25337;51.478;7.510;2023-11-19T12:20:49;14.30;99.90
39657;DHT22;25337;51.478;7.510;2023-11-19T12:23:15;13.90;99.90
39657;DHT22;25337;51.478;7.510;2023-11-19T12:25:41;13.60;99.90
39657;DHT22;25337;51.478;7.510;2023-11-19T12:28:12;13.50;99.90
39657;DHT22;25337;51.478;7.510;2023-11-19T12:30:38;13.50;99.90
39657;DHT22;25337;51.478;7.510;2023-11-19T12:33:08;13.60;99.90
39657;DHT22;25337;51.478;7.510;2023-11-19T12:35:42;14.40;99.90
39657;DHT22;25337;51.478;7.510;2023-11-19T12:38:18;15.00;99.90
39657;DHT22;25337;51.478;7.510;2023-11-19T12:40:43;15.10;99.90
39657;DHT22;25337;51.478;7.510;2023-11-19T12:43:09;14.50;99.90
39657;DHT22;25337;51.478;7.510;2023-11-19T12:45:36;14.20;99.90
39657;DHT22;25337;51.478;7.510;2023-11-19T12:48:05;13.90;99.90
39657;DHT22;25337;51.478;7.510;2023-11-19T12:50:56;13.70;99.90
39657;DHT22;25337;51.478;7.510;2023-11-19T12:53:23;13.50;99.90
39657;DHT22;25337;51.478;7.510;2023-11-19T12:55:50;13.40;99.90
39657;DHT22;25337;51.478;7.510;2023-11-19T12:58:33;13.50;99.90
39657;DHT22;25337;51.478;7.510;2023-11-19T13:01:03;13.40;99.90
39657;DHT22;25337;51.478;7.510;2023-11-19T13:03:33;13.40;99.90
39657;DHT22;25337;51.478;7.510;2023-11-19T13:06:09;13.30;99.90
39657;DHT22;25337;51.478;7.510;2023-11-19T13:08:39;13.30;99.90
39657;DHT22;25337;51.478;7.510;2023-11-19T13:11:05;13.20;99.90
39657;DHT22;25337;51.478;7.510;2023-11-19T13:13:32;13.20;99.90
39657;DHT22;25337;51.478;7.510;2023-11-19T13:16:04;13.20;99.90
39657;DHT22;25337;51.478;7.510;2023-11-19T13:18:36;13.10;99.90
39657;DHT22;25337;51.478;7.510;2023-11-19T13:21:02;12.90;99.90
39657;DHT22;25337;51.478;7.510;2023-11-19T13:23:28;12.70;99.90
39657;DHT22;25337;51.478;7.510;2023-11-19T13:25:53;12.40;99.90
39657;DHT22;25337;51.478;7.510;2023-11-19T13:28:19;12.20;99.90
39657;DHT22;25337;51.478;7.510;2023-11-19T13:30:47;11.80;99.90
39657;DHT22;25337;51.478;7.510;2023-11-19T13:33:12;11.70;99.90
39657;DHT22;25337;51.478;7.510;2023-11-19T13:35:38;11.60;99.90
39657;DHT22;25337;51.478;7.510;2023-11-19T13:38:06;11.50;99.90
39657;DHT22;25337;51.478;7.510;2023-11-19T13:40:34;11.50;99.90
39657;DHT22;25337;51.478;7.510;2023-11-19T13:43:00;11.50;99.90
39657;DHT22;25337;51.478;7.510;2023-11-19T13:45:25;11.50;99.90
39657;DHT22;25337;51.478;7.510;2023-11-19T13:47:51;11.50;99.90
39657;DHT22;25337;51.478;7.510;2023-11-19T13:50:17;11.50;99.90
39657;DHT22;25337;51.478;7.510;2023-11-19T13:52:44;11.60;99.90
39657;DHT22;25337;51.478;7.510;2023-11-19T13:55:12;11.80;99.90
39657;DHT22;25337;51.478;7.510;2023-11-19T13:57:41;11.80;99.90
39657;DHT22;25337;51.478;7.510;2023-11-19T14:00:09;11.90;99.90
39657;DHT22;25337;51.478;7.510;2023-11-19T14:02:41;11.90;99.90
39657;DHT22;25337;51.478;7.510;2023-11-19T14:05:09;12.00;99.90
39657;DHT22;25337;51.478;7.510;2023-11-19T14:07:36;12.00;99.90
39657;DHT22;25337;51.478;7.510;2023-11-19T14:10:02;12.10;99.90
39657;DHT22;25337;51.478;7.510;2023-11-19T14:12:28;12.00;99.90
39657;DHT22;25337;51.478;7.510;2023-11-19T14:14:54;12.00;99.90
39657;DHT22;25337;51.478;7.510;2023-11-19T14:17:20;12.10;99.90
39657;DHT22;25337;51.478;7.510;2023-11-19T14:19:46;12.00;99.90
39657;DHT22;25337;51.478;7.510;2023-11-19T14:22:13;12.20;99.90
39657;DHT22;25337;51.478;7.510;2023-11-19T14:24:39;12.20;99.90
39657;DHT22;25337;51.478;7.510;2023-11-19T14:27:07;12.10;99.90
39657;DHT22;25337;51.478;7.510;2023-11-19T14:29:32;12.00;99.90
39657;DHT22;25337;51.478;7.510;2023-11-19T14:32:00;11.90;99.90
39657;DHT22;25337;51.478;7.510;2023-11-19T14:34:26;11.80;99.90
39657;DHT22;25337;51.478;7.510;2023-11-19T14:36:52;11.70;99.90
39657;DHT22;25337;51.478;7.510;2023-11-19T14:39:19;11.70;99.90
39657;DHT22;25337;51.478;7.510;2023-11-19T14:41:47;11.70;99.90
39657;DHT22;25337;51.478;7.510;2023-11-19T14:44:12;11.70;99.90
39657;DHT22;25337;51.478;7.510;2023-11-19T14:46:38;11.70;99.90
39657;DHT22;25337;51.478;7.510;2023-11-19T14:49:04;11.70;99.90
39657;DHT22;25337;51.478;7.510;2023-11-19T14:51:30;11.70;99.90
39657;DHT22;25337;51.478;7.510;2023-11-19T14:53:56;11.70;99.90
39657;DHT22;25337;51.478;7.510;2023-11-19T14:56:21;11.60;99.90
39657;DHT22;25337;51.478;7.510;2023-11-19T14:58:47;11.50;99.90
39657;DHT22;25337;51.478;7.510;2023-11-19T15:01:13;11.30;99.90
39657;DHT22;25337;51.478;7.510;2023-11-19T15:03:39;11.20;99.90
39657;DHT22;25337;51.478;7.510;2023-11-19T15:06:06;11.10;99.90
39657;DHT22;25337;51.478;7.510;2023-11-19T15:08:32;11.20;99.90
39657;DHT22;25337;51.478;7.510;2023-11-19T15:10:58;11.20;99.90
39657;DHT22;25337;51.478;7.510;2023-11-19T15:13:25;11.10;99.90
39657;DHT22;25337;51.478;7.510;2023-11-19T15:15:50;11.10;99.90
39657;DHT22;25337;51.478;7.510;2023-11-19T15:18:18;11.00;99.90
39657;DHT22;25337;51.478;7.510;2023-11-19T15:20:46;10.90;99.90
39657;DHT22;25337;51.478;7.510;2023-11-19T15:23:13;11.00;99.90
39657;DHT22;25337;51.478;7.510;2023-11-19T15:25:39;10.90;99.90
39657;DHT22;25337;51.478;7.510;2023-11-19T15:28:07;10.80;99.90
39657;DHT22;25337;51.478;7.510;2023-11-19T15:30:32;10.80;99.90
39657;DHT22;25337;51.478;7.510;2023-11-19T15:33:00;10.80;99.90
39657;DHT22;25337;51.478;7.510;2023-11-19T15:35:26;10.80;99.90
39657;DHT22;25337;51.478;7.510;2023-11-19T15:37:54;10.80;99.90
39657;DHT22;25337;51.478;7.510;2023-11-19T15:40:21;10.80;99.90
39657;DHT22;25337;51.478;7.510;2023-11-19T15:42:46;10.90;99.90
39657;DHT22;25337;51.478;7.510;2023-11-19T15:45:13;10.90;99.90
39657;DHT22;25337;51.478;7.510;2023-11-19T15:47:38;10.90;99.90
39657;DHT22;25337;51.478;7.510;2023-11-19T15:50:05;10.80;99.90
39657;DHT22;25337;51.478;7.510;2023-11-19T15:52:32;10.80;99.90
39657;DHT22;25337;51.478;7.510;2023-11-19T15:54:58;10.80;99.90
39657;DHT22;25337;51.478;7.510;2023-11-19T15:57:24;10.80;99.90